Sligo, Missouri
Current Conditions -  °F | °C
As of 10:58 AM on Thursday 18 Dec 2014 (Local Time) from KTBN Reporting Station
Overcast Overcast  
Wind Chill: 28°   Ceiling: 500
Heat Index: 33°   Visibility: 10mi
Dew Point: 33°   Wind: 6mph
Humidity: 100%   Direction: 130°SE
Pressure: 30.2"   Gusts: NA
Location:  37.5023°N, 91.4546°W
Report Text: KTBN 181658Z AUTO 13005KT 10SM OVC005 01/01 A3020 RMK AO2 SLP240 T00060006
Loading
Personal Weather Stations






























Interactive Weather Map New forecast layout! Learn more

10-Day Weather Forecast

Advertisements
Track Severe Weather on mobile